[x] [x]
.:Aeroklub Partizánske:. |  .:Fotogaléria:. |  .:Videogaléria:. |  .:Foto týždňa:. |  .:Kniha návštev:. |  .:Linky:. |  .:Moje konto:.
 MENU [x]

 METEO [x]

 FotoGaléria [x]

 Slnko [x]
LZPT Partizánske
48°37'N 18°20'E
Východ: 4:49 AM
Západ: 8:52 PM
LZIB Bratislava
48°10'N 17°12'E
Východ: 4:56 AM
Západ: 8:55 PM
LZKZ Košice
48°39'N 21°14'E
Východ: 4:37 AM
Západ: 8:41 PM

 Jazyky [x]
Vyberte jazyk rozhrania:

Slovak English German Polish


  SPRÁVY METAR - ČESKÁ REPUBLIKA
Brno-TuřanyLKTB 040130Z VRB01KT CAVOK 19/13 Q1025 NOSIGdekóduj
ČáslavLKCV 040100Z 17003KT CAVOK 20/14 Q1025 NOSIG RMK BLU BLUdekóduj
HolešovLKHO 010800Z VRB03KT CAVOK 23/17 Q1019dekóduj
Hradec Královedekóduj
Karlovy VaryLKKV 040100Z VRB02KT CAVOK 18/14 Q1026dekóduj
KunoviceLKKU 031400Z VRB02KT CAVOK 30/10 Q1026dekóduj
LiberecLKLB 020602Z 16003KT 9999 FEW016 BKN043 M01/M02 Q1016dekóduj
Mariánsky Láznědekóduj
Náměšť nad OslavouLKNA 040100Z 00000KT CAVOK 20/13 Q1026 RMK BLUdekóduj
Ostrava-MošnovLKMT 040130Z 25004KT CAVOK 15/13 Q1026 NOSIGdekóduj
PardubiceLKPD 040100Z VRB02KT CAVOK 17/13 Q1025 RMK BLACKdekóduj
Praha-KbelyLKKB 040100Z 20005KT CAVOK 21/14 Q1024dekóduj
Praha-RuzyněLKPR 040130Z 21003KT CAVOK 17/13 Q1024 NOSIGdekóduj
PřerovLKPO 010000Z 05005KT CAVOK 04/01 Q1013dekóduj
 FreeFly INFO [x]
COROWA 2009


COROWA 2009


COROWA 2009



 LZPT webcam [x]

 Foto týždňa [x]

 KBO SNA [x]

 Login [x]
Užívateľské meno

Heslo


Ešte nemáš konto? Môžeš si ho vytvoriť. Registrovaný užívateľ má množstvo výhod, napr. posielanie okamžitých správ iným užívateľom, posielanie komentárov s vlastným menom, možnosť pridávať fotografie do galérie...

 Kto je online [x]
Momentálne je online 32 hostí a 0 členov.

Ste anonymný užívateľ. Zaregistrovať sa môžete tu

DETAILY

 Linky [x]

 Počítadlo návštev [x]
Zaznamenali sme
34638533
strán zobrazených od júna 2003

Počet dnešných unikátnych IP adries:
0



www.freefly.sk
Powered by SzMsoft ©2003-2005. Polish translations by Cezary Dąbek. Flying server www.freefly.sk is administrated by maro@freefly.sk - www.artweb.freefly.sk
PHP-Nuke Copyright © 2004 by Francisco Burzi. This is free software, and you may redistribute it under the GPL. PHP-Nuke comes with absolutely no warranty, for details, see the license.